sensor_id;sensor_type;location;lat;lon;timestamp;pressure;altitude;pressure_sealevel;temperature;humidity
69630;BME280;56857;52.212;5.496;2023-04-25T00:01:34;101121.50;;;6.13;100.00
69630;BME280;56857;52.212;5.496;2023-04-25T00:03:59;101114.41;;;6.04;100.00
69630;BME280;56857;52.212;5.496;2023-04-25T00:06:24;101114.81;;;5.99;100.00
69630;BME280;56857;52.212;5.496;2023-04-25T00:08:50;101117.16;;;5.93;100.00
69630;BME280;56857;52.212;5.496;2023-04-25T00:11:20;101120.13;;;5.88;100.00
69630;BME280;56857;52.212;5.496;2023-04-25T00:13:46;101118.88;;;5.82;100.00
69630;BME280;56857;52.212;5.496;2023-04-25T00:16:11;101117.72;;;5.75;100.00
69630;BME280;56857;52.212;5.496;2023-04-25T00:18:36;101127.53;;;5.73;100.00
69630;BME280;56857;52.212;5.496;2023-04-25T00:21:02;101126.28;;;5.68;100.00
69630;BME280;56857;52.212;5.496;2023-04-25T00:23:27;101126.53;;;5.65;100.00
69630;BME280;56857;52.212;5.496;2023-04-25T00:25:53;101130.94;;;5.64;100.00
69630;BME280;56857;52.212;5.496;2023-04-25T00:28:18;101131.09;;;5.63;100.00
69630;BME280;56857;52.212;5.496;2023-04-25T00:30:43;101139.69;;;5.65;100.00
69630;BME280;56857;52.212;5.496;2023-04-25T00:33:09;101136.47;;;5.61;100.00
69630;BME280;56857;52.212;5.496;2023-04-25T00:35:35;101132.31;;;5.58;100.00
69630;BME280;56857;52.212;5.496;2023-04-25T00:38:01;101130.63;;;5.57;100.00
69630;BME280;56857;52.212;5.496;2023-04-25T00:40:26;101139.50;;;5.56;100.00
69630;BME280;56857;52.212;5.496;2023-04-25T00:42:52;101131.88;;;5.53;100.00
69630;BME280;56857;52.212;5.496;2023-04-25T00:45:18;101133.78;;;5.51;100.00
69630;BME280;56857;52.212;5.496;2023-04-25T00:47:45;101138.34;;;5.49;100.00
69630;BME280;56857;52.212;5.496;2023-04-25T00:50:11;101144.69;;;5.47;100.00
69630;BME280;56857;52.212;5.496;2023-04-25T00:52:38;101143.88;;;5.46;100.00
69630;BME280;56857;52.212;5.496;2023-04-25T00:55:05;101145.28;;;5.50;100.00
69630;BME280;56857;52.212;5.496;2023-04-25T00:57:31;101139.03;;;5.51;100.00
69630;BME280;56857;52.212;5.496;2023-04-25T00:59:56;101133.78;;;5.51;100.00
69630;BME280;56857;52.212;5.496;2023-04-25T01:02:22;101137.28;;;5.52;100.00
69630;BME280;56857;52.212;5.496;2023-04-25T01:04:48;101137.38;;;5.50;100.00
69630;BME280;56857;52.212;5.496;2023-04-25T01:07:14;101144.44;;;5.50;100.00
69630;BME280;56857;52.212;5.496;2023-04-25T01:09:39;101132.00;;;5.52;100.00
69630;BME280;56857;52.212;5.496;2023-04-25T01:12:06;101136.16;;;5.54;100.00
69630;BME280;56857;52.212;5.496;2023-04-25T01:14:31;101141.16;;;5.57;100.00
69630;BME280;56857;52.212;5.496;2023-04-25T01:16:56;101143.78;;;5.57;100.00
69630;BME280;56857;52.212;5.496;2023-04-25T01:19:23;101134.50;;;5.53;100.00
69630;BME280;56857;52.212;5.496;2023-04-25T01:21:49;101145.28;;;5.50;100.00
69630;BME280;56857;52.212;5.496;2023-04-25T01:24:15;101148.03;;;5.49;100.00
69630;BME280;56857;52.212;5.496;2023-04-25T01:26:41;101148.56;;;5.43;100.00
69630;BME280;56857;52.212;5.496;2023-04-25T01:29:07;101159.34;;;5.40;100.00
69630;BME280;56857;52.212;5.496;2023-04-25T01:31:34;101162.31;;;5.35;100.00
69630;BME280;56857;52.212;5.496;2023-04-25T01:34:00;101153.75;;;5.33;100.00
69630;BME280;56857;52.212;5.496;2023-04-25T01:36:26;101156.75;;;5.28;100.00
69630;BME280;56857;52.212;5.496;2023-04-25T01:38:51;101166.81;;;5.23;100.00
69630;BME280;56857;52.212;5.496;2023-04-25T01:41:17;101159.06;;;5.22;100.00
69630;BME280;56857;52.212;5.496;2023-04-25T01:43:42;101162.91;;;5.18;100.00
69630;BME280;56857;52.212;5.496;2023-04-25T01:46:07;101159.81;;;5.13;100.00
69630;BME280;56857;52.212;5.496;2023-04-25T01:48:33;101167.69;;;5.13;100.00
69630;BME280;56857;52.212;5.496;2023-04-25T01:50:58;101163.66;;;5.08;100.00
69630;BME280;56857;52.212;5.496;2023-04-25T01:53:24;101169.16;;;5.05;100.00
69630;BME280;56857;52.212;5.496;2023-04-25T01:55:49;101165.97;;;5.02;100.00
69630;BME280;56857;52.212;5.496;2023-04-25T01:58:15;101170.50;;;5.00;100.00
69630;BME280;56857;52.212;5.496;2023-04-25T02:00:40;101175.03;;;4.98;100.00
69630;BME280;56857;52.212;5.496;2023-04-25T02:03:06;101170.75;;;4.97;100.00
69630;BME280;56857;52.212;5.496;2023-04-25T02:05:36;101174.34;;;4.96;100.00
69630;BME280;56857;52.212;5.496;2023-04-25T02:08:02;101185.78;;;4.95;100.00
69630;BME280;56857;52.212;5.496;2023-04-25T02:10:27;101181.50;;;4.94;100.00
69630;BME280;56857;52.212;5.496;2023-04-25T02:12:52;101184.00;;;4.95;100.00
69630;BME280;56857;52.212;5.496;2023-04-25T02:15:18;101188.31;;;4.96;100.00
69630;BME280;56857;52.212;5.496;2023-04-25T02:17:43;101184.84;;;4.96;100.00
69630;BME280;56857;52.212;5.496;2023-04-25T02:20:09;101180.41;;;4.96;100.00
69630;BME280;56857;52.212;5.496;2023-04-25T02:22:34;101182.56;;;4.91;100.00
69630;BME280;56857;52.212;5.496;2023-04-25T02:25:00;101185.19;;;4.91;100.00
69630;BME280;56857;52.212;5.496;2023-04-25T02:27:25;101187.97;;;4.90;100.00
69630;BME280;56857;52.212;5.496;2023-04-25T02:29:50;101180.19;;;4.88;100.00
69630;BME280;56857;52.212;5.496;2023-04-25T02:32:15;101183.66;;;4.88;100.00
69630;BME280;56857;52.212;5.496;2023-04-25T02:34:41;101182.97;;;4.86;100.00
69630;BME280;56857;52.212;5.496;2023-04-25T02:37:06;101184.75;;;4.86;100.00
69630;BME280;56857;52.212;5.496;2023-04-25T02:39:31;101195.13;;;4.87;100.00
69630;BME280;56857;52.212;5.496;2023-04-25T02:41:57;101195.03;;;4.89;100.00
69630;BME280;56857;52.212;5.496;2023-04-25T02:44:22;101194.28;;;4.87;100.00
69630;BME280;56857;52.212;5.496;2023-04-25T02:46:47;101199.56;;;4.87;100.00
69630;BME280;56857;52.212;5.496;2023-04-25T02:49:13;101191.91;;;4.84;100.00
69630;BME280;56857;52.212;5.496;2023-04-25T02:51:38;101191.91;;;4.84;100.00
69630;BME280;56857;52.212;5.496;2023-04-25T02:54:03;101198.97;;;4.83;100.00
69630;BME280;56857;52.212;5.496;2023-04-25T02:56:29;101210.44;;;4.82;100.00
69630;BME280;56857;52.212;5.496;2023-04-25T02:58:54;101209.56;;;4.82;100.00
69630;BME280;56857;52.212;5.496;2023-04-25T03:01:19;101202.56;;;4.82;100.00
69630;BME280;56857;52.212;5.496;2023-04-25T03:03:45;101200.03;;;4.81;100.00
69630;BME280;56857;52.212;5.496;2023-04-25T03:06:10;101208.16;;;4.78;100.00
69630;BME280;56857;52.212;5.496;2023-04-25T03:08:35;101201.34;;;4.75;100.00
69630;BME280;56857;52.212;5.496;2023-04-25T03:11:02;101196.59;;;4.69;100.00
69630;BME280;56857;52.212;5.496;2023-04-25T03:13:27;101204.03;;;4.64;100.00
69630;BME280;56857;52.212;5.496;2023-04-25T03:15:53;101204.50;;;4.58;100.00
69630;BME280;56857;52.212;5.496;2023-04-25T03:18:18;101195.81;;;4.57;100.00
69630;BME280;56857;52.212;5.496;2023-04-25T03:20:44;101208.94;;;4.57;100.00
69630;BME280;56857;52.212;5.496;2023-04-25T03:23:10;101206.41;;;4.56;100.00
69630;BME280;56857;52.212;5.496;2023-04-25T03:25:35;101209.88;;;4.56;100.00
69630;BME280;56857;52.212;5.496;2023-04-25T03:28:01;101216.09;;;4.55;100.00
69630;BME280;56857;52.212;5.496;2023-04-25T03:30:26;101216.19;;;4.54;100.00
69630;BME280;56857;52.212;5.496;2023-04-25T03:32:52;101210.94;;;4.54;100.00
69630;BME280;56857;52.212;5.496;2023-04-25T03:35:17;101214.53;;;4.53;100.00
69630;BME280;56857;52.212;5.496;2023-04-25T03:37:42;101224.31;;;4.51;100.00
69630;BME280;56857;52.212;5.496;2023-04-25T03:40:08;101225.25;;;4.50;100.00
69630;BME280;56857;52.212;5.496;2023-04-25T03:42:35;101227.91;;;4.50;100.00
69630;BME280;56857;52.212;5.496;2023-04-25T03:45:00;101230.41;;;4.51;100.00
69630;BME280;56857;52.212;5.496;2023-04-25T03:47:25;101227.78;;;4.51;100.00
69630;BME280;56857;52.212;5.496;2023-04-25T03:49:51;101233.03;;;4.51;100.00
69630;BME280;56857;52.212;5.496;2023-04-25T03:52:16;101234.81;;;4.51;100.00
69630;BME280;56857;52.212;5.496;2023-04-25T03:54:41;101233.03;;;4.51;100.00
69630;BME280;56857;52.212;5.496;2023-04-25T03:57:06;101240.78;;;4.53;100.00
69630;BME280;56857;52.212;5.496;2023-04-25T03:59:32;101239.00;;;4.53;100.00
69630;BME280;56857;52.212;5.496;2023-04-25T04:01:57;101242.56;;;4.52;100.00
69630;BME280;56857;52.212;5.496;2023-04-25T04:04:22;101243.41;;;4.53;100.00
69630;BME280;56857;52.212;5.496;2023-04-25T04:06:48;101238.16;;;4.53;100.00
69630;BME280;56857;52.212;5.496;2023-04-25T04:09:13;101244.38;;;4.52;100.00
69630;BME280;56857;52.212;5.496;2023-04-25T04:11:39;101247.81;;;4.52;100.00
69630;BME280;56857;52.212;5.496;2023-04-25T04:14:07;101243.41;;;4.53;100.00
69630;BME280;56857;52.212;5.496;2023-04-25T04:16:33;101240.53;;;4.56;100.00
69630;BME280;56857;52.212;5.496;2023-04-25T04:18:58;101242.94;;;4.59;100.00
69630;BME280;56857;52.212;5.496;2023-04-25T04:21:23;101251.38;;;4.62;100.00
69630;BME280;56857;52.212;5.496;2023-04-25T04:23:49;101250.47;;;4.63;100.00
69630;BME280;56857;52.212;5.496;2023-04-25T04:26:14;101249.34;;;4.66;100.00
69630;BME280;56857;52.212;5.496;2023-04-25T04:28:40;101245.78;;;4.67;100.00
69630;BME280;56857;52.212;5.496;2023-04-25T04:31:05;101258.78;;;4.69;100.00
69630;BME280;56857;52.212;5.496;2023-04-25T04:33:30;101251.75;;;4.69;100.00
69630;BME280;56857;52.212;5.496;2023-04-25T04:35:56;101259.38;;;4.72;100.00
69630;BME280;56857;52.212;5.496;2023-04-25T04:38:21;101246.97;;;4.74;100.00
69630;BME280;56857;52.212;5.496;2023-04-25T04:40:46;101259.03;;;4.77;100.00
69630;BME280;56857;52.212;5.496;2023-04-25T04:43:12;101259.88;;;4.77;100.00
69630;BME280;56857;52.212;5.496;2023-04-25T04:45:37;101259.63;;;4.80;100.00
69630;BME280;56857;52.212;5.496;2023-04-25T04:48:02;101271.94;;;4.80;100.00
69630;BME280;56857;52.212;5.496;2023-04-25T04:50:28;101278.00;;;4.80;100.00
69630;BME280;56857;52.212;5.496;2023-04-25T04:52:53;101275.25;;;4.82;100.00
69630;BME280;56857;52.212;5.496;2023-04-25T04:55:18;101276.94;;;4.83;100.00
69630;BME280;56857;52.212;5.496;2023-04-25T04:57:44;101286.09;;;4.88;100.00
69630;BME280;56857;52.212;5.496;2023-04-25T05:00:11;101291.09;;;4.92;100.00
69630;BME280;56857;52.212;5.496;2023-04-25T05:02:38;101298.75;;;4.95;100.00
69630;BME280;56857;52.212;5.496;2023-04-25T05:05:04;101288.25;;;4.95;100.00
69630;BME280;56857;52.212;5.496;2023-04-25T05:07:30;101291.72;;;4.95;100.00
69630;BME280;56857;52.212;5.496;2023-04-25T05:09:55;101303.66;;;4.99;100.00
69630;BME280;56857;52.212;5.496;2023-04-25T05:12:20;101296.34;;;5.03;100.00
69630;BME280;56857;52.212;5.496;2023-04-25T05:14:46;101312.72;;;5.06;100.00
69630;BME280;56857;52.212;5.496;2023-04-25T05:17:12;101310.66;;;5.10;100.00
69630;BME280;56857;52.212;5.496;2023-04-25T05:19:37;101315.44;;;5.16;100.00
69630;BME280;56857;52.212;5.496;2023-04-25T05:22:02;101311.25;;;5.25;100.00
69630;BME280;56857;52.212;5.496;2023-04-25T05:24:28;101317.66;;;5.32;100.00
69630;BME280;56857;52.212;5.496;2023-04-25T05:26:53;101316.59;;;5.34;100.00
69630;BME280;56857;52.212;5.496;2023-04-25T05:29:19;101325.06;;;5.38;100.00
69630;BME280;56857;52.212;5.496;2023-04-25T05:31:44;101321.94;;;5.44;100.00
69630;BME280;56857;52.212;5.496;2023-04-25T05:34:09;101331.00;;;5.51;100.00
69630;BME280;56857;52.212;5.496;2023-04-25T05:36:35;101333.28;;;5.56;100.00
69630;BME280;56857;52.212;5.496;2023-04-25T05:39:00;101335.41;;;5.62;100.00
69630;BME280;56857;52.212;5.496;2023-04-25T05:41:25;101327.59;;;5.72;100.00
69630;BME280;56857;52.212;5.496;2023-04-25T05:43:51;101331.28;;;5.80;100.00
69630;BME280;56857;52.212;5.496;2023-04-25T05:46:16;101332.69;;;5.85;100.00
69630;BME280;56857;52.212;5.496;2023-04-25T05:48:41;101327.88;;;5.90;100.00
69630;BME280;56857;52.212;5.496;2023-04-25T05:51:08;101334.34;;;5.97;100.00
69630;BME280;56857;52.212;5.496;2023-04-25T05:53:33;101341.50;;;5.95;100.00
69630;BME280;56857;52.212;5.496;2023-04-25T05:55:58;101345.13;;;5.94;100.00
69630;BME280;56857;52.212;5.496;2023-04-25T05:58:24;101343.06;;;5.97;100.00
69630;BME280;56857;52.212;5.496;2023-04-25T06:00:49;101349.88;;;6.00;100.00
69630;BME280;56857;52.212;5.496;2023-04-25T06:03:14;101359.31;;;6.02;100.00
69630;BME280;56857;52.212;5.496;2023-04-25T06:05:43;101358.44;;;6.02;100.00
69630;BME280;56857;52.212;5.496;2023-04-25T06:08:09;101352.03;;;5.95;100.00
69630;BME280;56857;52.212;5.496;2023-04-25T06:10:34;101361.13;;;5.91;100.00
69630;BME280;56857;52.212;5.496;2023-04-25T06:13:00;101360.41;;;5.89;100.00
69630;BME280;56857;52.212;5.496;2023-04-25T06:15:25;101366.16;;;5.94;100.00
69630;BME280;56857;52.212;5.496;2023-04-25T06:17:50;101372.31;;;6.04;100.00
69630;BME280;56857;52.212;5.496;2023-04-25T06:20:16;101372.97;;;6.17;100.00
69630;BME280;56857;52.212;5.496;2023-04-25T06:22:41;101376.28;;;6.31;100.00
69630;BME280;56857;52.212;5.496;2023-04-25T06:25:07;101380.13;;;6.47;100.00
69630;BME280;56857;52.212;5.496;2023-04-25T06:27:33;101375.34;;;6.62;100.00
69630;BME280;56857;52.212;5.496;2023-04-25T06:29:58;101370.81;;;6.74;100.00
69630;BME280;56857;52.212;5.496;2023-04-25T06:32:24;101369.34;;;6.81;100.00
69630;BME280;56857;52.212;5.496;2023-04-25T06:34:49;101372.66;;;6.83;100.00
69630;BME280;56857;52.212;5.496;2023-04-25T06:37:16;101380.56;;;6.83;100.00
69630;BME280;56857;52.212;5.496;2023-04-25T06:39:41;101380.56;;;6.83;100.00
69630;BME280;56857;52.212;5.496;2023-04-25T06:42:06;101376.81;;;6.76;100.00
69630;BME280;56857;52.212;5.496;2023-04-25T06:44:32;101380.16;;;6.78;100.00
69630;BME280;56857;52.212;5.496;2023-04-25T06:46:57;101389.16;;;6.76;100.00
69630;BME280;56857;52.212;5.496;2023-04-25T06:49:22;101386.78;;;6.72;100.00
69630;BME280;56857;52.212;5.496;2023-04-25T06:51:48;101390.66;;;6.68;100.00
69630;BME280;56857;52.212;5.496;2023-04-25T06:54:13;101390.91;;;6.65;100.00
69630;BME280;56857;52.212;5.496;2023-04-25T06:56:38;101405.59;;;6.68;100.00
69630;BME280;56857;52.212;5.496;2023-04-25T06:59:07;101398.41;;;6.70;100.00
69630;BME280;56857;52.212;5.496;2023-04-25T07:01:32;101391.91;;;6.74;100.00
69630;BME280;56857;52.212;5.496;2023-04-25T07:03:57;101392.63;;;6.76;100.00
69630;BME280;56857;52.212;5.496;2023-04-25T07:06:23;101404.28;;;6.83;100.00
69630;BME280;56857;52.212;5.496;2023-04-25T07:08:48;101411.16;;;6.95;100.00
69630;BME280;56857;52.212;5.496;2023-04-25T07:11:13;101402.88;;;7.00;100.00
69630;BME280;56857;52.212;5.496;2023-04-25T07:13:38;101411.34;;;7.04;100.00
69630;BME280;56857;52.212;5.496;2023-04-25T07:16:04;101414.00;;;7.13;100.00
69630;BME280;56857;52.212;5.496;2023-04-25T07:18:30;101409.06;;;7.30;100.00
69630;BME280;56857;52.212;5.496;2023-04-25T07:20:55;101418.28;;;7.45;100.00
69630;BME280;56857;52.212;5.496;2023-04-25T07:23:20;101413.16;;;7.53;100.00
69630;BME280;56857;52.212;5.496;2023-04-25T07:25:46;101419.97;;;7.56;100.00
69630;BME280;56857;52.212;5.496;2023-04-25T07:28:11;101427.19;;;7.54;100.00
69630;BME280;56857;52.212;5.496;2023-04-25T07:30:37;101415.38;;;7.48;100.00
69630;BME280;56857;52.212;5.496;2023-04-25T07:33:02;101417.84;;;7.50;100.00
69630;BME280;56857;52.212;5.496;2023-04-25T07:35:28;101423.84;;;7.52;100.00
69630;BME280;56857;52.212;5.496;2023-04-25T07:37:56;101427.03;;;7.55;100.00
69630;BME280;56857;52.212;5.496;2023-04-25T07:40:21;101432.22;;;7.66;100.00
69630;BME280;56857;52.212;5.496;2023-04-25T07:42:47;101433.06;;;7.77;100.00
69630;BME280;56857;52.212;5.496;2023-04-25T07:45:16;101441.41;;;7.82;100.00
69630;BME280;56857;52.212;5.496;2023-04-25T07:47:41;101442.25;;;7.82;100.00
69630;BME280;56857;52.212;5.496;2023-04-25T07:50:07;101444.34;;;7.79;100.00
69630;BME280;56857;52.212;5.496;2023-04-25T07:52:33;101437.91;;;7.72;100.00
69630;BME280;56857;52.212;5.496;2023-04-25T07:54:58;101446.50;;;7.64;100.00
69630;BME280;56857;52.212;5.496;2023-04-25T07:57:24;101452.31;;;7.58;100.00
69630;BME280;56857;52.212;5.496;2023-04-25T07:59:49;101448.03;;;7.57;100.00
69630;BME280;56857;52.212;5.496;2023-04-25T08:02:15;101458.84;;;7.54;100.00
69630;BME280;56857;52.212;5.496;2023-04-25T08:04:40;101458.81;;;7.44;100.00
69630;BME280;56857;52.212;5.496;2023-04-25T08:07:05;101468.38;;;7.35;100.00
69630;BME280;56857;52.212;5.496;2023-04-25T08:09:30;101477.34;;;7.23;100.00
69630;BME280;56857;52.212;5.496;2023-04-25T08:11:56;101482.94;;;7.09;100.00
69630;BME280;56857;52.212;5.496;2023-04-25T08:14:24;101479.69;;;6.95;100.00
69630;BME280;56857;52.212;5.496;2023-04-25T08:16:49;101489.25;;;6.96;100.00
69630;BME280;56857;52.212;5.496;2023-04-25T08:19:21;101489.06;;;7.09;100.00
69630;BME280;56857;52.212;5.496;2023-04-25T08:21:46;101495.78;;;7.23;100.00
69630;BME280;56857;52.212;5.496;2023-04-25T08:24:12;101490.03;;;7.39;100.00
69630;BME280;56857;52.212;5.496;2023-04-25T08:26:37;101497.16;;;7.48;100.00
69630;BME280;56857;52.212;5.496;2023-04-25T08:29:02;101497.19;;;7.58;100.00
69630;BME280;56857;52.212;5.496;2023-04-25T08:31:28;101491.94;;;7.68;100.00
69630;BME280;56857;52.212;5.496;2023-04-25T08:33:53;101499.03;;;7.77;100.00
69630;BME280;56857;52.212;5.496;2023-04-25T08:36:19;101500.41;;;7.71;100.00
69630;BME280;56857;52.212;5.496;2023-04-25T08:38:44;101507.09;;;7.75;100.00
69630;BME280;56857;52.212;5.496;2023-04-25T08:41:11;101508.22;;;7.82;100.00
69630;BME280;56857;52.212;5.496;2023-04-25T08:43:37;101507.97;;;7.85;100.00
69630;BME280;56857;52.212;5.496;2023-04-25T08:46:06;101517.56;;;7.96;100.00
69630;BME280;56857;52.212;5.496;2023-04-25T08:48:36;101519.50;;;8.04;100.00
69630;BME280;56857;52.212;5.496;2023-04-25T08:51:02;101521.47;;;8.02;100.00
69630;BME280;56857;52.212;5.496;2023-04-25T08:53:32;101510.09;;;8.01;100.00
69630;BME280;56857;52.212;5.496;2023-04-25T08:56:02;101513.00;;;8.08;100.00
69630;BME280;56857;52.212;5.496;2023-04-25T08:58:28;101516.50;;;8.18;100.00
69630;BME280;56857;52.212;5.496;2023-04-25T09:00:56;101526.53;;;8.34;100.00
69630;BME280;56857;52.212;5.496;2023-04-25T09:03:31;101534.44;;;8.34;100.00
69630;BME280;56857;52.212;5.496;2023-04-25T09:06:06;101535.47;;;8.62;100.00
69630;BME280;56857;52.212;5.496;2023-04-25T09:08:33;101534.47;;;9.02;100.00
69630;BME280;56857;52.212;5.496;2023-04-25T09:10:58;101549.47;;;9.11;100.00
69630;BME280;56857;52.212;5.496;2023-04-25T09:13:25;101551.44;;;8.90;100.00
69630;BME280;56857;52.212;5.496;2023-04-25T09:15:53;101557.69;;;8.79;100.00
69630;BME280;56857;52.212;5.496;2023-04-25T09:18:38;101558.50;;;9.18;100.00
69630;BME280;56857;52.212;5.496;2023-04-25T09:21:11;101556.41;;;10.14;100.00
69630;BME280;56857;52.212;5.496;2023-04-25T09:23:47;101558.78;;;10.63;100.00
69630;BME280;56857;52.212;5.496;2023-04-25T09:26:15;101564.50;;;10.58;100.00
69630;BME280;56857;52.212;5.496;2023-04-25T09:28:41;101571.25;;;10.35;100.00
69630;BME280;56857;52.212;5.496;2023-04-25T09:31:09;101571.66;;;10.12;100.00
69630;BME280;56857;52.212;5.496;2023-04-25T09:33:35;101577.28;;;10.00;100.00
69630;BME280;56857;52.212;5.496;2023-04-25T09:36:08;101591.06;;;9.75;100.00
69630;BME280;56857;52.212;5.496;2023-04-25T09:38:44;101592.72;;;9.29;100.00
69630;BME280;56857;52.212;5.496;2023-04-25T09:41:10;101600.41;;;9.03;100.00
69630;BME280;56857;52.212;5.496;2023-04-25T09:43:36;101601.41;;;8.73;100.00
69630;BME280;56857;52.212;5.496;2023-04-25T09:46:02;101596.78;;;8.56;100.00
69630;BME280;56857;52.212;5.496;2023-04-25T09:48:32;101604.16;;;8.43;100.00
69630;BME280;56857;52.212;5.496;2023-04-25T09:51:13;101607.13;;;8.28;100.00
69630;BME280;56857;52.212;5.496;2023-04-25T09:53:41;101617.28;;;8.23;100.00
69630;BME280;56857;52.212;5.496;2023-04-25T09:56:08;101621.31;;;8.18;100.00
69630;BME280;56857;52.212;5.496;2023-04-25T09:58:37;101617.94;;;8.16;100.00
69630;BME280;56857;52.212;5.496;2023-04-25T10:01:04;101625.50;;;8.30;100.00
69630;BME280;56857;52.212;5.496;2023-04-25T10:03:32;101621.00;;;8.51;100.00
69630;BME280;56857;52.212;5.496;2023-04-25T10:06:03;101634.78;;;8.65;100.00
69630;BME280;56857;52.212;5.496;2023-04-25T10:08:32;101629.94;;;8.99;100.00
69630;BME280;56857;52.212;5.496;2023-04-25T10:11:00;101629.84;;;9.57;100.00
69630;BME280;56857;52.212;5.496;2023-04-25T10:13:26;101636.69;;;10.34;100.00
69630;BME280;56857;52.212;5.496;2023-04-25T10:15:53;101633.31;;;10.96;100.00
69630;BME280;56857;52.212;5.496;2023-04-25T10:18:19;101630.75;;;11.04;100.00
69630;BME280;56857;52.212;5.496;2023-04-25T10:20:47;101629.72;;;11.23;100.00
69630;BME280;56857;52.212;5.496;2023-04-25T10:23:13;101628.75;;;12.10;100.00
69630;BME280;56857;52.212;5.496;2023-04-25T10:25:40;101621.78;;;12.92;100.00
69630;BME280;56857;52.212;5.496;2023-04-25T10:28:05;101626.22;;;13.74;98.17
69630;BME280;56857;52.212;5.496;2023-04-25T10:30:31;101615.66;;;14.67;91.30
69630;BME280;56857;52.212;5.496;2023-04-25T10:32:58;101618.56;;;15.56;85.66
69630;BME280;56857;52.212;5.496;2023-04-25T10:35:28;101622.94;;;15.34;77.57
69630;BME280;56857;52.212;5.496;2023-04-25T10:38:10;101615.91;;;15.18;73.66
69630;BME280;56857;52.212;5.496;2023-04-25T10:40:36;101616.97;;;15.70;78.63
69630;BME280;56857;52.212;5.496;2023-04-25T10:46:17;101622.59;;;14.45;73.93
69630;BME280;56857;52.212;5.496;2023-04-25T10:49:08;101623.75;;;14.11;80.49
69630;BME280;56857;52.212;5.496;2023-04-25T10:51:34;101626.44;;;14.74;79.13
69630;BME280;56857;52.212;5.496;2023-04-25T10:56:33;101622.66;;;16.33;73.56
69630;BME280;56857;52.212;5.496;2023-04-25T10:59:15;101624.03;;;16.80;68.69
69630;BME280;56857;52.212;5.496;2023-04-25T11:01:45;101623.50;;;17.69;61.44
69630;BME280;56857;52.212;5.496;2023-04-25T11:04:30;101627.03;;;17.41;63.79
69630;BME280;56857;52.212;5.496;2023-04-25T11:09:28;101651.13;;;14.45;71.66
69630;BME280;56857;52.212;5.496;2023-04-25T11:11:57;101646.88;;;12.73;86.90
69630;BME280;56857;52.212;5.496;2023-04-25T11:14:23;101664.38;;;11.65;96.97
69630;BME280;56857;52.212;5.496;2023-04-25T11:16:56;101660.81;;;10.77;100.00
69630;BME280;56857;52.212;5.496;2023-04-25T11:19:22;101653.53;;;10.61;100.00
69630;BME280;56857;52.212;5.496;2023-04-25T11:21:47;101659.69;;;10.79;100.00
69630;BME280;56857;52.212;5.496;2023-04-25T11:24:13;101662.78;;;11.10;100.00
69630;BME280;56857;52.212;5.496;2023-04-25T11:26:39;101654.63;;;12.00;100.00
69630;BME280;56857;52.212;5.496;2023-04-25T11:29:06;101657.22;;;12.18;100.00
69630;BME280;56857;52.212;5.496;2023-04-25T11:31:31;101662.41;;;11.67;100.00
69630;BME280;56857;52.212;5.496;2023-04-25T11:33:57;101668.69;;;11.22;100.00
69630;BME280;56857;52.212;5.496;2023-04-25T11:36:23;101659.22;;;10.66;100.00
69630;BME280;56857;52.212;5.496;2023-04-25T11:38:50;101659.66;;;10.43;100.00
69630;BME280;56857;52.212;5.496;2023-04-25T11:41:16;101656.88;;;10.35;100.00
69630;BME280;56857;52.212;5.496;2023-04-25T11:43:43;101665.56;;;10.18;100.00
69630;BME280;56857;52.212;5.496;2023-04-25T11:46:09;101666.63;;;10.07;100.00
69630;BME280;56857;52.212;5.496;2023-04-25T11:48:40;101667.03;;;10.12;100.00
69630;BME280;56857;52.212;5.496;2023-04-25T11:51:06;101663.50;;;10.49;100.00
69630;BME280;56857;52.212;5.496;2023-04-25T11:53:31;101663.88;;;10.82;100.00
69630;BME280;56857;52.212;5.496;2023-04-25T11:55:56;101664.66;;;11.62;100.00
69630;BME280;56857;52.212;5.496;2023-04-25T11:58:22;101659.44;;;11.96;100.00
69630;BME280;56857;52.212;5.496;2023-04-25T12:00:47;101663.28;;;12.02;100.00
69630;BME280;56857;52.212;5.496;2023-04-25T12:03:13;101663.09;;;12.38;100.00
69630;BME280;56857;52.212;5.496;2023-04-25T12:05:38;101666.41;;;13.23;99.79
69630;BME280;56857;52.212;5.496;2023-04-25T12:08:13;101674.44;;;13.31;93.87
69630;BME280;56857;52.212;5.496;2023-04-25T12:10:41;101670.38;;;12.86;90.77
69630;BME280;56857;52.212;5.496;2023-04-25T12:13:26;101666.66;;;12.12;92.75
69630;BME280;56857;52.212;5.496;2023-04-25T12:15:54;101665.50;;;11.63;89.25
69630;BME280;56857;52.212;5.496;2023-04-25T12:18:20;101669.78;;;11.55;88.55
69630;BME280;56857;52.212;5.496;2023-04-25T12:20:46;101671.25;;;12.02;82.58
69630;BME280;56857;52.212;5.496;2023-04-25T12:23:11;101674.16;;;12.67;80.08
69630;BME280;56857;52.212;5.496;2023-04-25T12:25:44;101663.03;;;12.72;81.50
69630;BME280;56857;52.212;5.496;2023-04-25T12:28:20;101670.75;;;12.41;80.86
69630;BME280;56857;52.212;5.496;2023-04-25T12:33:21;101684.34;;;11.95;85.97
69630;BME280;56857;52.212;5.496;2023-04-25T12:35:46;101679.50;;;12.67;84.12
69630;BME280;56857;52.212;5.496;2023-04-25T12:38:23;101671.44;;;13.34;78.38
69630;BME280;56857;52.212;5.496;2023-04-25T12:40:48;101674.34;;;13.80;73.44
69630;BME280;56857;52.212;5.496;2023-04-25T12:43:13;101673.03;;;13.68;69.72
69630;BME280;56857;52.212;5.496;2023-04-25T12:45:39;101680.41;;;13.50;63.64
69630;BME280;56857;52.212;5.496;2023-04-25T12:48:04;101680.88;;;13.78;61.35
69630;BME280;56857;52.212;5.496;2023-04-25T12:50:29;101682.75;;;13.53;57.47
69630;BME280;56857;52.212;5.496;2023-04-25T12:52:55;101676.31;;;12.72;52.03
69630;BME280;56857;52.212;5.496;2023-04-25T12:55:20;101687.91;;;12.55;59.91